sensor_id;sensor_type;location;lat;lon;timestamp;P1;durP1;ratioP1;P2;durP2;ratioP2
19727;SDS011;10015;52.530;13.390;2022-12-10T00:01:06;22.53;;;8.73;;
19727;SDS011;10015;52.530;13.390;2022-12-10T00:03:34;21.87;;;8.50;;
19727;SDS011;10015;52.530;13.390;2022-12-10T00:06:02;23.17;;;8.20;;
19727;SDS011;10015;52.530;13.390;2022-12-10T00:08:30;21.40;;;8.57;;
19727;SDS011;10015;52.530;13.390;2022-12-10T00:10:56;21.97;;;8.40;;
19727;SDS011;10015;52.530;13.390;2022-12-10T00:13:22;22.13;;;9.10;;
19727;SDS011;10015;52.530;13.390;2022-12-10T00:15:48;21.60;;;8.60;;
19727;SDS011;10015;52.530;13.390;2022-12-10T00:18:14;23.20;;;8.77;;
19727;SDS011;10015;52.530;13.390;2022-12-10T00:20:40;21.97;;;8.63;;
19727;SDS011;10015;52.530;13.390;2022-12-10T00:23:06;18.27;;;8.33;;
19727;SDS011;10015;52.530;13.390;2022-12-10T00:25:32;21.77;;;8.60;;
19727;SDS011;10015;52.530;13.390;2022-12-10T00:27:58;24.33;;;8.30;;
19727;SDS011;10015;52.530;13.390;2022-12-10T00:30:24;21.10;;;8.93;;
19727;SDS011;10015;52.530;13.390;2022-12-10T00:32:50;21.00;;;8.63;;
19727;SDS011;10015;52.530;13.390;2022-12-10T00:35:16;21.20;;;8.13;;
19727;SDS011;10015;52.530;13.390;2022-12-10T00:37:42;23.57;;;9.17;;
19727;SDS011;10015;52.530;13.390;2022-12-10T00:40:08;23.60;;;8.83;;
19727;SDS011;10015;52.530;13.390;2022-12-10T00:42:39;23.77;;;8.57;;
19727;SDS011;10015;52.530;13.390;2022-12-10T00:45:05;26.53;;;9.43;;
19727;SDS011;10015;52.530;13.390;2022-12-10T00:47:31;19.83;;;8.07;;
19727;SDS011;10015;52.530;13.390;2022-12-10T00:50:15;22.77;;;9.23;;
19727;SDS011;10015;52.530;13.390;2022-12-10T00:52:43;22.83;;;8.70;;
19727;SDS011;10015;52.530;13.390;2022-12-10T00:55:08;25.13;;;9.07;;
19727;SDS011;10015;52.530;13.390;2022-12-10T00:57:34;22.97;;;9.33;;
19727;SDS011;10015;52.530;13.390;2022-12-10T01:00:00;23.67;;;9.00;;
19727;SDS011;10015;52.530;13.390;2022-12-10T06:30:33;15.03;;;7.70;;
19727;SDS011;10015;52.530;13.390;2022-12-10T06:37:20;14.80;;;7.63;;
19727;SDS011;10015;52.530;13.390;2022-12-10T06:40:17;19.93;;;8.10;;
19727;SDS011;10015;52.530;13.390;2022-12-10T06:43:00;15.97;;;7.20;;
19727;SDS011;10015;52.530;13.390;2022-12-10T06:45:37;18.23;;;7.47;;
19727;SDS011;10015;52.530;13.390;2022-12-10T06:51:04;16.57;;;8.03;;
19727;SDS011;10015;52.530;13.390;2022-12-10T06:53:36;20.50;;;7.97;;
19727;SDS011;10015;52.530;13.390;2022-12-10T06:56:19;17.50;;;8.00;;
19727;SDS011;10015;52.530;13.390;2022-12-10T06:58:50;16.47;;;7.83;;
19727;SDS011;10015;52.530;13.390;2022-12-10T07:01:23;14.50;;;6.83;;
19727;SDS011;10015;52.530;13.390;2022-12-10T07:04:36;15.13;;;6.80;;
19727;SDS011;10015;52.530;13.390;2022-12-10T07:07:15;13.80;;;7.30;;
19727;SDS011;10015;52.530;13.390;2022-12-10T07:10:43;14.40;;;6.77;;
19727;SDS011;10015;52.530;13.390;2022-12-10T07:13:09;14.27;;;7.37;;
19727;SDS011;10015;52.530;13.390;2022-12-10T07:15:35;13.70;;;7.03;;
19727;SDS011;10015;52.530;13.390;2022-12-10T07:18:00;14.50;;;7.10;;
19727;SDS011;10015;52.530;13.390;2022-12-10T07:20:26;13.57;;;6.93;;
19727;SDS011;10015;52.530;13.390;2022-12-10T07:22:54;15.03;;;6.93;;
19727;SDS011;10015;52.530;13.390;2022-12-10T07:25:20;16.23;;;7.47;;
19727;SDS011;10015;52.530;13.390;2022-12-10T07:27:46;14.67;;;6.87;;
19727;SDS011;10015;52.530;13.390;2022-12-10T07:30:12;15.93;;;7.23;;
19727;SDS011;10015;52.530;13.390;2022-12-10T07:32:38;13.30;;;6.67;;
19727;SDS011;10015;52.530;13.390;2022-12-10T07:35:04;13.43;;;6.83;;
19727;SDS011;10015;52.530;13.390;2022-12-10T07:37:30;15.60;;;7.23;;
19727;SDS011;10015;52.530;13.390;2022-12-10T07:39:57;13.03;;;6.90;;
19727;SDS011;10015;52.530;13.390;2022-12-10T07:42:23;15.33;;;6.90;;
19727;SDS011;10015;52.530;13.390;2022-12-10T07:44:49;14.43;;;7.17;;
19727;SDS011;10015;52.530;13.390;2022-12-10T07:47:15;12.80;;;6.90;;
19727;SDS011;10015;52.530;13.390;2022-12-10T07:49:41;13.30;;;7.20;;
19727;SDS011;10015;52.530;13.390;2022-12-10T07:52:08;14.07;;;7.07;;
19727;SDS011;10015;52.530;13.390;2022-12-10T07:54:35;11.40;;;6.60;;
19727;SDS011;10015;52.530;13.390;2022-12-10T07:57:01;11.73;;;6.40;;
19727;SDS011;10015;52.530;13.390;2022-12-10T07:59:27;13.43;;;6.80;;
19727;SDS011;10015;52.530;13.390;2022-12-10T08:01:53;13.90;;;6.90;;
19727;SDS011;10015;52.530;13.390;2022-12-10T08:04:18;13.47;;;6.80;;
19727;SDS011;10015;52.530;13.390;2022-12-10T08:06:44;14.07;;;7.37;;
19727;SDS011;10015;52.530;13.390;2022-12-10T08:09:10;13.63;;;7.27;;
19727;SDS011;10015;52.530;13.390;2022-12-10T08:11:37;14.37;;;6.73;;
19727;SDS011;10015;52.530;13.390;2022-12-10T08:14:03;13.87;;;6.73;;
19727;SDS011;10015;52.530;13.390;2022-12-10T08:16:29;14.33;;;6.93;;
19727;SDS011;10015;52.530;13.390;2022-12-10T08:18:56;11.90;;;7.30;;
19727;SDS011;10015;52.530;13.390;2022-12-10T08:21:26;16.20;;;7.60;;
19727;SDS011;10015;52.530;13.390;2022-12-10T08:23:54;14.37;;;7.23;;
19727;SDS011;10015;52.530;13.390;2022-12-10T08:26:22;13.73;;;7.07;;
19727;SDS011;10015;52.530;13.390;2022-12-10T08:28:50;13.63;;;7.17;;
19727;SDS011;10015;52.530;13.390;2022-12-10T08:31:17;14.80;;;6.90;;
19727;SDS011;10015;52.530;13.390;2022-12-10T08:33:45;17.60;;;7.77;;
19727;SDS011;10015;52.530;13.390;2022-12-10T08:36:12;13.53;;;7.20;;
19727;SDS011;10015;52.530;13.390;2022-12-10T08:38:39;14.47;;;7.80;;
19727;SDS011;10015;52.530;13.390;2022-12-10T08:41:16;15.23;;;8.20;;
19727;SDS011;10015;52.530;13.390;2022-12-10T08:43:44;15.13;;;7.70;;
19727;SDS011;10015;52.530;13.390;2022-12-10T08:46:11;14.57;;;7.87;;
19727;SDS011;10015;52.530;13.390;2022-12-10T08:48:39;16.43;;;8.60;;
19727;SDS011;10015;52.530;13.390;2022-12-10T08:51:06;16.47;;;7.50;;
19727;SDS011;10015;52.530;13.390;2022-12-10T08:53:33;16.57;;;7.93;;
19727;SDS011;10015;52.530;13.390;2022-12-10T08:55:59;16.23;;;8.07;;
19727;SDS011;10015;52.530;13.390;2022-12-10T08:58:26;16.07;;;7.67;;
19727;SDS011;10015;52.530;13.390;2022-12-10T09:00:52;15.87;;;7.90;;
19727;SDS011;10015;52.530;13.390;2022-12-10T09:03:19;17.73;;;8.60;;
19727;SDS011;10015;52.530;13.390;2022-12-10T09:05:44;17.43;;;8.07;;
19727;SDS011;10015;52.530;13.390;2022-12-10T09:08:10;14.50;;;7.90;;
19727;SDS011;10015;52.530;13.390;2022-12-10T09:10:37;14.80;;;7.57;;
19727;SDS011;10015;52.530;13.390;2022-12-10T09:13:03;16.33;;;8.30;;
19727;SDS011;10015;52.530;13.390;2022-12-10T09:15:30;17.43;;;8.43;;
19727;SDS011;10015;52.530;13.390;2022-12-10T09:17:56;16.63;;;8.83;;
19727;SDS011;10015;52.530;13.390;2022-12-10T09:23:14;15.67;;;7.80;;
19727;SDS011;10015;52.530;13.390;2022-12-10T09:25:44;15.73;;;7.80;;
19727;SDS011;10015;52.530;13.390;2022-12-10T09:28:12;14.33;;;7.90;;
19727;SDS011;10015;52.530;13.390;2022-12-10T09:30:38;18.20;;;7.73;;
19727;SDS011;10015;52.530;13.390;2022-12-10T09:33:12;14.23;;;8.00;;
19727;SDS011;10015;52.530;13.390;2022-12-10T09:35:39;16.13;;;8.43;;
19727;SDS011;10015;52.530;13.390;2022-12-10T09:38:06;14.77;;;7.90;;
19727;SDS011;10015;52.530;13.390;2022-12-10T09:43:25;19.10;;;8.83;;
19727;SDS011;10015;52.530;13.390;2022-12-10T09:46:21;14.13;;;8.07;;
19727;SDS011;10015;52.530;13.390;2022-12-10T09:51:38;15.27;;;8.07;;
19727;SDS011;10015;52.530;13.390;2022-12-10T09:54:10;17.50;;;7.90;;
19727;SDS011;10015;52.530;13.390;2022-12-10T09:56:43;14.60;;;7.83;;
19727;SDS011;10015;52.530;13.390;2022-12-10T09:59:52;15.53;;;8.57;;
19727;SDS011;10015;52.530;13.390;2022-12-10T10:07:31;16.50;;;7.93;;
19727;SDS011;10015;52.530;13.390;2022-12-10T10:10:16;14.60;;;7.60;;
19727;SDS011;10015;52.530;13.390;2022-12-10T10:12:54;16.27;;;8.07;;
19727;SDS011;10015;52.530;13.390;2022-12-10T10:15:29;17.50;;;8.60;;
19727;SDS011;10015;52.530;13.390;2022-12-10T10:17:58;18.20;;;8.47;;
19727;SDS011;10015;52.530;13.390;2022-12-10T10:20:30;17.50;;;8.80;;
19727;SDS011;10015;52.530;13.390;2022-12-10T10:22:56;15.93;;;8.47;;
19727;SDS011;10015;52.530;13.390;2022-12-10T10:25:24;15.83;;;8.00;;
19727;SDS011;10015;52.530;13.390;2022-12-10T10:27:50;17.17;;;7.93;;
19727;SDS011;10015;52.530;13.390;2022-12-10T10:30:17;18.37;;;8.70;;
19727;SDS011;10015;52.530;13.390;2022-12-10T10:32:46;16.90;;;9.07;;
19727;SDS011;10015;52.530;13.390;2022-12-10T10:35:23;16.33;;;8.47;;
19727;SDS011;10015;52.530;13.390;2022-12-10T10:38:07;16.40;;;8.63;;
19727;SDS011;10015;52.530;13.390;2022-12-10T10:40:55;14.37;;;7.17;;
19727;SDS011;10015;52.530;13.390;2022-12-10T10:46:04;18.10;;;8.57;;
19727;SDS011;10015;52.530;13.390;2022-12-10T10:48:37;17.93;;;8.37;;
19727;SDS011;10015;52.530;13.390;2022-12-10T10:56:05;15.63;;;8.67;;
19727;SDS011;10015;52.530;13.390;2022-12-10T10:58:35;17.40;;;8.57;;
19727;SDS011;10015;52.530;13.390;2022-12-10T11:01:08;17.20;;;8.70;;
19727;SDS011;10015;52.530;13.390;2022-12-10T11:03:35;18.70;;;8.23;;
19727;SDS011;10015;52.530;13.390;2022-12-10T11:06:04;15.17;;;7.97;;
19727;SDS011;10015;52.530;13.390;2022-12-10T11:08:32;16.40;;;8.30;;
19727;SDS011;10015;52.530;13.390;2022-12-10T11:11:14;19.20;;;8.90;;
19727;SDS011;10015;52.530;13.390;2022-12-10T11:13:42;15.57;;;7.87;;
19727;SDS011;10015;52.530;13.390;2022-12-10T11:16:21;17.80;;;8.77;;
19727;SDS011;10015;52.530;13.390;2022-12-10T11:19:00;16.20;;;8.60;;
19727;SDS011;10015;52.530;13.390;2022-12-10T11:21:43;17.93;;;8.40;;
19727;SDS011;10015;52.530;13.390;2022-12-10T11:24:10;16.47;;;8.37;;
19727;SDS011;10015;52.530;13.390;2022-12-10T11:26:55;15.03;;;8.30;;
19727;SDS011;10015;52.530;13.390;2022-12-10T11:32:25;14.37;;;7.97;;
19727;SDS011;10015;52.530;13.390;2022-12-10T11:37:38;17.53;;;8.00;;
19727;SDS011;10015;52.530;13.390;2022-12-10T11:42:47;15.93;;;8.50;;
19727;SDS011;10015;52.530;13.390;2022-12-10T11:54:27;15.90;;;8.23;;
19727;SDS011;10015;52.530;13.390;2022-12-10T11:57:15;16.47;;;8.50;;
19727;SDS011;10015;52.530;13.390;2022-12-10T12:02:28;15.57;;;8.23;;
19727;SDS011;10015;52.530;13.390;2022-12-10T12:08:03;19.07;;;8.53;;
19727;SDS011;10015;52.530;13.390;2022-12-10T12:13:15;16.67;;;8.27;;
19727;SDS011;10015;52.530;13.390;2022-12-10T12:15:55;17.00;;;9.03;;
19727;SDS011;10015;52.530;13.390;2022-12-10T12:21:10;17.10;;;8.80;;
19727;SDS011;10015;52.530;13.390;2022-12-10T12:26:35;18.37;;;8.53;;
19727;SDS011;10015;52.530;13.390;2022-12-10T12:31:59;17.80;;;8.33;;
19727;SDS011;10015;52.530;13.390;2022-12-10T12:34:47;17.10;;;9.00;;
19727;SDS011;10015;52.530;13.390;2022-12-10T12:37:16;16.90;;;8.30;;
19727;SDS011;10015;52.530;13.390;2022-12-10T12:39:45;16.27;;;8.97;;
19727;SDS011;10015;52.530;13.390;2022-12-10T12:42:29;14.23;;;8.13;;
19727;SDS011;10015;52.530;13.390;2022-12-10T12:45:21;18.43;;;8.70;;
19727;SDS011;10015;52.530;13.390;2022-12-10T12:50:59;17.73;;;9.07;;
19727;SDS011;10015;52.530;13.390;2022-12-10T12:53:25;18.23;;;9.20;;
19727;SDS011;10015;52.530;13.390;2022-12-10T12:58:38;18.43;;;8.40;;
19727;SDS011;10015;52.530;13.390;2022-12-10T13:01:18;16.93;;;8.83;;
19727;SDS011;10015;52.530;13.390;2022-12-10T13:04:02;16.10;;;8.87;;
19727;SDS011;10015;52.530;13.390;2022-12-10T13:06:35;19.10;;;9.00;;
19727;SDS011;10015;52.530;13.390;2022-12-10T13:11:38;17.60;;;8.93;;
19727;SDS011;10015;52.530;13.390;2022-12-10T13:29:28;19.23;;;9.10;;
19727;SDS011;10015;52.530;13.390;2022-12-10T13:31:55;23.77;;;10.87;;
19727;SDS011;10015;52.530;13.390;2022-12-10T13:34:39;19.03;;;10.10;;
19727;SDS011;10015;52.530;13.390;2022-12-10T13:37:12;20.73;;;10.00;;
19727;SDS011;10015;52.530;13.390;2022-12-10T13:45:23;17.07;;;9.17;;
19727;SDS011;10015;52.530;13.390;2022-12-10T13:47:53;20.37;;;9.47;;
19727;SDS011;10015;52.530;13.390;2022-12-10T13:50:45;18.27;;;9.50;;
19727;SDS011;10015;52.530;13.390;2022-12-10T13:56:54;21.00;;;9.17;;
19727;SDS011;10015;52.530;13.390;2022-12-10T14:07:01;23.10;;;9.50;;
19727;SDS011;10015;52.530;13.390;2022-12-10T14:09:29;23.87;;;10.53;;
19727;SDS011;10015;52.530;13.390;2022-12-10T14:12:04;23.60;;;9.57;;
19727;SDS011;10015;52.530;13.390;2022-12-10T14:14:39;17.87;;;8.87;;
19727;SDS011;10015;52.530;13.390;2022-12-10T14:17:12;19.00;;;9.50;;
19727;SDS011;10015;52.530;13.390;2022-12-10T14:19:43;20.63;;;9.20;;
19727;SDS011;10015;52.530;13.390;2022-12-10T14:22:34;23.13;;;10.00;;
19727;SDS011;10015;52.530;13.390;2022-12-10T14:25:04;24.47;;;9.63;;
19727;SDS011;10015;52.530;13.390;2022-12-10T14:27:36;23.63;;;10.10;;
19727;SDS011;10015;52.530;13.390;2022-12-10T14:30:47;22.57;;;9.83;;
19727;SDS011;10015;52.530;13.390;2022-12-10T14:33:09;25.17;;;9.80;;
19727;SDS011;10015;52.530;13.390;2022-12-10T14:35:41;24.60;;;10.57;;
19727;SDS011;10015;52.530;13.390;2022-12-10T14:38:12;25.87;;;10.30;;
19727;SDS011;10015;52.530;13.390;2022-12-10T14:40:47;26.37;;;9.33;;
19727;SDS011;10015;52.530;13.390;2022-12-10T14:43:23;28.20;;;11.50;;
19727;SDS011;10015;52.530;13.390;2022-12-10T14:46:03;28.00;;;11.13;;
19727;SDS011;10015;52.530;13.390;2022-12-10T14:48:30;28.67;;;10.43;;
19727;SDS011;10015;52.530;13.390;2022-12-10T14:51:04;29.83;;;10.40;;
19727;SDS011;10015;52.530;13.390;2022-12-10T14:53:35;23.17;;;9.40;;
19727;SDS011;10015;52.530;13.390;2022-12-10T14:56:02;26.73;;;10.23;;
19727;SDS011;10015;52.530;13.390;2022-12-10T14:58:34;21.37;;;9.80;;
19727;SDS011;10015;52.530;13.390;2022-12-10T15:01:06;25.50;;;9.73;;
19727;SDS011;10015;52.530;13.390;2022-12-10T15:03:39;25.57;;;10.10;;
19727;SDS011;10015;52.530;13.390;2022-12-10T15:06:12;24.63;;;10.27;;
19727;SDS011;10015;52.530;13.390;2022-12-10T15:08:42;24.60;;;9.47;;
19727;SDS011;10015;52.530;13.390;2022-12-10T15:11:14;25.30;;;9.57;;
19727;SDS011;10015;52.530;13.390;2022-12-10T15:13:44;26.40;;;9.60;;
19727;SDS011;10015;52.530;13.390;2022-12-10T15:16:18;28.00;;;11.00;;
19727;SDS011;10015;52.530;13.390;2022-12-10T15:19:20;26.00;;;9.30;;
19727;SDS011;10015;52.530;13.390;2022-12-10T15:21:46;31.13;;;11.07;;
19727;SDS011;10015;52.530;13.390;2022-12-10T15:24:15;34.20;;;10.70;;
19727;SDS011;10015;52.530;13.390;2022-12-10T15:26:45;31.10;;;9.70;;
19727;SDS011;10015;52.530;13.390;2022-12-10T15:31:48;30.50;;;10.47;;
19727;SDS011;10015;52.530;13.390;2022-12-10T15:34:15;38.23;;;12.47;;
19727;SDS011;10015;52.530;13.390;2022-12-10T15:36:47;30.93;;;10.47;;
19727;SDS011;10015;52.530;13.390;2022-12-10T15:39:37;30.53;;;10.57;;
19727;SDS011;10015;52.530;13.390;2022-12-10T15:42:26;26.80;;;10.13;;
19727;SDS011;10015;52.530;13.390;2022-12-10T15:45:08;27.43;;;10.37;;
19727;SDS011;10015;52.530;13.390;2022-12-10T15:47:57;29.90;;;10.93;;
19727;SDS011;10015;52.530;13.390;2022-12-10T15:50:24;28.53;;;10.17;;
19727;SDS011;10015;52.530;13.390;2022-12-10T15:52:51;34.40;;;10.93;;
19727;SDS011;10015;52.530;13.390;2022-12-10T15:55:18;34.20;;;10.30;;
19727;SDS011;10015;52.530;13.390;2022-12-10T15:57:44;35.10;;;10.63;;
19727;SDS011;10015;52.530;13.390;2022-12-10T16:00:18;31.70;;;10.07;;
19727;SDS011;10015;52.530;13.390;2022-12-10T16:02:54;32.00;;;10.53;;
19727;SDS011;10015;52.530;13.390;2022-12-10T16:05:25;29.77;;;10.53;;
19727;SDS011;10015;52.530;13.390;2022-12-10T16:07:58;32.20;;;11.20;;
19727;SDS011;10015;52.530;13.390;2022-12-10T16:10:35;31.57;;;10.70;;
19727;SDS011;10015;52.530;13.390;2022-12-10T16:15:33;30.57;;;11.27;;
19727;SDS011;10015;52.530;13.390;2022-12-10T16:18:07;33.17;;;10.40;;
19727;SDS011;10015;52.530;13.390;2022-12-10T16:20:34;34.37;;;11.13;;
19727;SDS011;10015;52.530;13.390;2022-12-10T16:23:00;30.17;;;10.43;;
19727;SDS011;10015;52.530;13.390;2022-12-10T16:25:28;36.73;;;11.00;;
19727;SDS011;10015;52.530;13.390;2022-12-10T16:27:55;33.17;;;11.80;;
19727;SDS011;10015;52.530;13.390;2022-12-10T16:32:53;36.97;;;10.73;;
19727;SDS011;10015;52.530;13.390;2022-12-10T16:35:20;35.63;;;12.10;;
19727;SDS011;10015;52.530;13.390;2022-12-10T16:37:47;30.13;;;11.07;;
19727;SDS011;10015;52.530;13.390;2022-12-10T16:40:22;39.03;;;11.87;;
19727;SDS011;10015;52.530;13.390;2022-12-10T16:42:50;32.73;;;11.80;;
19727;SDS011;10015;52.530;13.390;2022-12-10T16:45:21;38.13;;;12.10;;
19727;SDS011;10015;52.530;13.390;2022-12-10T16:48:00;40.57;;;13.13;;
19727;SDS011;10015;52.530;13.390;2022-12-10T16:50:27;41.37;;;12.80;;
19727;SDS011;10015;52.530;13.390;2022-12-10T16:52:54;44.60;;;12.33;;
19727;SDS011;10015;52.530;13.390;2022-12-10T16:55:22;44.40;;;13.23;;
19727;SDS011;10015;52.530;13.390;2022-12-10T16:57:50;38.93;;;12.87;;
19727;SDS011;10015;52.530;13.390;2022-12-10T17:00:21;45.10;;;11.80;;
19727;SDS011;10015;52.530;13.390;2022-12-10T17:02:49;44.53;;;13.80;;
19727;SDS011;10015;52.530;13.390;2022-12-10T17:07:56;40.23;;;12.73;;
19727;SDS011;10015;52.530;13.390;2022-12-10T17:10:23;44.53;;;13.30;;
19727;SDS011;10015;52.530;13.390;2022-12-10T17:13:12;38.97;;;11.63;;
19727;SDS011;10015;52.530;13.390;2022-12-10T17:15:40;39.30;;;13.20;;
19727;SDS011;10015;52.530;13.390;2022-12-10T17:18:14;40.60;;;12.27;;
19727;SDS011;10015;52.530;13.390;2022-12-10T17:20:42;41.80;;;12.73;;
19727;SDS011;10015;52.530;13.390;2022-12-10T17:23:08;44.97;;;12.77;;
19727;SDS011;10015;52.530;13.390;2022-12-10T17:25:35;43.97;;;12.53;;
19727;SDS011;10015;52.530;13.390;2022-12-10T17:28:01;41.63;;;13.33;;
19727;SDS011;10015;52.530;13.390;2022-12-10T17:30:27;35.37;;;13.10;;
19727;SDS011;10015;52.530;13.390;2022-12-10T17:32:53;32.43;;;11.37;;
19727;SDS011;10015;52.530;13.390;2022-12-10T17:35:20;42.13;;;12.63;;
19727;SDS011;10015;52.530;13.390;2022-12-10T17:37:46;41.03;;;12.97;;
19727;SDS011;10015;52.530;13.390;2022-12-10T17:40:19;39.10;;;12.80;;
19727;SDS011;10015;52.530;13.390;2022-12-10T17:42:46;37.17;;;13.90;;
19727;SDS011;10015;52.530;13.390;2022-12-10T17:45:14;40.80;;;12.97;;
19727;SDS011;10015;52.530;13.390;2022-12-10T17:47:42;42.97;;;13.13;;
19727;SDS011;10015;52.530;13.390;2022-12-10T17:50:16;47.17;;;14.53;;
19727;SDS011;10015;52.530;13.390;2022-12-10T17:52:51;38.53;;;11.87;;
19727;SDS011;10015;52.530;13.390;2022-12-10T17:55:17;41.70;;;13.40;;
19727;SDS011;10015;52.530;13.390;2022-12-10T17:57:45;41.67;;;14.60;;
19727;SDS011;10015;52.530;13.390;2022-12-10T18:00:12;42.80;;;13.97;;
19727;SDS011;10015;52.530;13.390;2022-12-10T18:02:41;41.67;;;13.97;;
19727;SDS011;10015;52.530;13.390;2022-12-10T18:05:07;43.17;;;13.53;;
19727;SDS011;10015;52.530;13.390;2022-12-10T18:07:33;43.50;;;12.83;;
19727;SDS011;10015;52.530;13.390;2022-12-10T18:10:00;41.80;;;13.13;;
19727;SDS011;10015;52.530;13.390;2022-12-10T18:12:26;34.37;;;11.13;;
19727;SDS011;10015;52.530;13.390;2022-12-10T18:14:52;42.30;;;12.63;;
19727;SDS011;10015;52.530;13.390;2022-12-10T18:17:18;43.07;;;14.07;;
19727;SDS011;10015;52.530;13.390;2022-12-10T18:19:44;44.30;;;13.37;;
19727;SDS011;10015;52.530;13.390;2022-12-10T18:22:10;38.73;;;12.53;;
19727;SDS011;10015;52.530;13.390;2022-12-10T18:24:36;37.73;;;12.27;;
19727;SDS011;10015;52.530;13.390;2022-12-10T18:27:02;39.20;;;11.93;;
19727;SDS011;10015;52.530;13.390;2022-12-10T18:29:29;33.73;;;12.57;;
19727;SDS011;10015;52.530;13.390;2022-12-10T18:31:55;38.13;;;12.60;;
19727;SDS011;10015;52.530;13.390;2022-12-10T18:34:22;37.13;;;12.60;;
19727;SDS011;10015;52.530;13.390;2022-12-10T18:36:48;40.70;;;12.40;;
19727;SDS011;10015;52.530;13.390;2022-12-10T18:39:16;41.37;;;13.60;;
19727;SDS011;10015;52.530;13.390;2022-12-10T18:41:45;40.90;;;12.50;;
19727;SDS011;10015;52.530;13.390;2022-12-10T18:44:12;35.97;;;12.93;;
19727;SDS011;10015;52.530;13.390;2022-12-10T18:46:41;43.43;;;12.73;;
19727;SDS011;10015;52.530;13.390;2022-12-10T18:49:11;37.13;;;12.57;;
19727;SDS011;10015;52.530;13.390;2022-12-10T18:51:39;35.03;;;12.30;;
19727;SDS011;10015;52.530;13.390;2022-12-10T18:54:06;36.67;;;13.00;;
19727;SDS011;10015;52.530;13.390;2022-12-10T18:56:32;42.33;;;12.13;;
19727;SDS011;10015;52.530;13.390;2022-12-10T18:58:59;35.90;;;11.77;;
19727;SDS011;10015;52.530;13.390;2022-12-10T19:01:26;35.83;;;12.60;;
19727;SDS011;10015;52.530;13.390;2022-12-10T19:03:58;35.67;;;12.13;;
19727;SDS011;10015;52.530;13.390;2022-12-10T19:06:25;31.77;;;11.93;;
19727;SDS011;10015;52.530;13.390;2022-12-10T19:08:53;33.63;;;11.43;;
19727;SDS011;10015;52.530;13.390;2022-12-10T19:11:20;31.97;;;11.30;;
19727;SDS011;10015;52.530;13.390;2022-12-10T19:13:48;35.23;;;11.37;;
19727;SDS011;10015;52.530;13.390;2022-12-10T19:16:15;39.73;;;12.33;;
19727;SDS011;10015;52.530;13.390;2022-12-10T19:18:45;38.83;;;12.53;;
19727;SDS011;10015;52.530;13.390;2022-12-10T19:21:11;35.80;;;12.53;;
19727;SDS011;10015;52.530;13.390;2022-12-10T19:23:38;36.17;;;11.50;;
19727;SDS011;10015;52.530;13.390;2022-12-10T19:26:47;30.80;;;11.90;;
19727;SDS011;10015;52.530;13.390;2022-12-10T19:28:57;35.03;;;11.67;;
19727;SDS011;10015;52.530;13.390;2022-12-10T19:31:24;34.47;;;12.10;;
19727;SDS011;10015;52.530;13.390;2022-12-10T19:33:51;34.60;;;11.57;;
19727;SDS011;10015;52.530;13.390;2022-12-10T19:36:21;31.73;;;11.67;;
19727;SDS011;10015;52.530;13.390;2022-12-10T19:38:51;31.83;;;12.13;;
19727;SDS011;10015;52.530;13.390;2022-12-10T19:41:18;34.47;;;11.97;;
19727;SDS011;10015;52.530;13.390;2022-12-10T19:43:44;35.83;;;11.83;;
19727;SDS011;10015;52.530;13.390;2022-12-10T19:46:14;30.77;;;11.67;;
19727;SDS011;10015;52.530;13.390;2022-12-10T19:48:42;30.87;;;11.90;;
19727;SDS011;10015;52.530;13.390;2022-12-10T19:51:11;32.90;;;12.33;;
19727;SDS011;10015;52.530;13.390;2022-12-10T19:53:39;31.27;;;12.67;;
19727;SDS011;10015;52.530;13.390;2022-12-10T19:58:55;37.60;;;13.20;;
19727;SDS011;10015;52.530;13.390;2022-12-10T20:01:23;37.67;;;13.60;;
19727;SDS011;10015;52.530;13.390;2022-12-10T20:03:50;34.60;;;13.63;;
19727;SDS011;10015;52.530;13.390;2022-12-10T20:06:18;29.80;;;12.77;;
19727;SDS011;10015;52.530;13.390;2022-12-10T20:08:49;33.00;;;13.33;;
19727;SDS011;10015;52.530;13.390;2022-12-10T20:11:15;35.57;;;13.30;;
19727;SDS011;10015;52.530;13.390;2022-12-10T20:13:41;29.73;;;13.13;;
19727;SDS011;10015;52.530;13.390;2022-12-10T20:16:13;31.30;;;12.97;;
19727;SDS011;10015;52.530;13.390;2022-12-10T20:18:41;33.50;;;12.57;;
19727;SDS011;10015;52.530;13.390;2022-12-10T20:21:07;34.47;;;12.93;;
19727;SDS011;10015;52.530;13.390;2022-12-10T20:23:33;31.13;;;11.97;;
19727;SDS011;10015;52.530;13.390;2022-12-10T20:25:59;28.40;;;12.70;;
19727;SDS011;10015;52.530;13.390;2022-12-10T20:28:26;33.23;;;13.13;;
19727;SDS011;10015;52.530;13.390;2022-12-10T20:30:52;31.77;;;12.30;;
19727;SDS011;10015;52.530;13.390;2022-12-10T20:33:18;33.27;;;12.70;;
19727;SDS011;10015;52.530;13.390;2022-12-10T20:35:44;33.80;;;12.47;;
19727;SDS011;10015;52.530;13.390;2022-12-10T20:38:11;28.23;;;12.13;;
19727;SDS011;10015;52.530;13.390;2022-12-10T20:40:37;26.13;;;11.67;;
19727;SDS011;10015;52.530;13.390;2022-12-10T20:43:03;26.10;;;12.03;;
19727;SDS011;10015;52.530;13.390;2022-12-10T20:45:29;26.40;;;11.30;;
19727;SDS011;10015;52.530;13.390;2022-12-10T20:47:56;26.83;;;11.13;;
19727;SDS011;10015;52.530;13.390;2022-12-10T20:50:22;27.97;;;11.80;;
19727;SDS011;10015;52.530;13.390;2022-12-10T20:52:50;28.63;;;11.63;;
19727;SDS011;10015;52.530;13.390;2022-12-10T20:55:16;25.83;;;10.87;;
19727;SDS011;10015;52.530;13.390;2022-12-10T20:57:42;25.87;;;11.57;;
19727;SDS011;10015;52.530;13.390;2022-12-10T21:00:11;22.87;;;10.20;;
19727;SDS011;10015;52.530;13.390;2022-12-10T21:02:41;25.50;;;10.27;;
19727;SDS011;10015;52.530;13.390;2022-12-10T21:05:07;26.73;;;10.50;;
19727;SDS011;10015;52.530;13.390;2022-12-10T21:07:33;28.30;;;10.90;;
19727;SDS011;10015;52.530;13.390;2022-12-10T21:09:59;28.10;;;11.43;;
19727;SDS011;10015;52.530;13.390;2022-12-10T21:12:25;24.70;;;10.37;;
19727;SDS011;10015;52.530;13.390;2022-12-10T21:14:51;24.33;;;10.47;;
19727;SDS011;10015;52.530;13.390;2022-12-10T21:17:17;29.60;;;11.20;;
19727;SDS011;10015;52.530;13.390;2022-12-10T21:19:43;28.07;;;11.30;;
19727;SDS011;10015;52.530;13.390;2022-12-10T21:22:12;27.07;;;10.13;;
19727;SDS011;10015;52.530;13.390;2022-12-10T21:24:39;21.33;;;9.47;;
19727;SDS011;10015;52.530;13.390;2022-12-10T21:27:05;26.90;;;9.93;;
19727;SDS011;10015;52.530;13.390;2022-12-10T21:29:31;22.93;;;10.33;;
19727;SDS011;10015;52.530;13.390;2022-12-10T21:31:57;25.03;;;9.93;;
19727;SDS011;10015;52.530;13.390;2022-12-10T21:34:23;23.77;;;9.80;;
19727;SDS011;10015;52.530;13.390;2022-12-10T21:36:49;28.30;;;10.40;;
19727;SDS011;10015;52.530;13.390;2022-12-10T21:39:15;24.67;;;9.50;;
19727;SDS011;10015;52.530;13.390;2022-12-10T21:41:50;18.53;;;8.50;;
19727;SDS011;10015;52.530;13.390;2022-12-10T21:44:40;22.33;;;9.00;;
19727;SDS011;10015;52.530;13.390;2022-12-10T21:47:18;21.73;;;8.73;;
19727;SDS011;10015;52.530;13.390;2022-12-10T21:49:44;22.33;;;9.33;;
19727;SDS011;10015;52.530;13.390;2022-12-10T21:52:11;28.50;;;10.37;;
19727;SDS011;10015;52.530;13.390;2022-12-10T21:54:52;25.30;;;9.50;;
19727;SDS011;10015;52.530;13.390;2022-12-10T21:57:21;26.17;;;10.00;;
19727;SDS011;10015;52.530;13.390;2022-12-10T22:00:19;20.30;;;8.77;;